sensor_id;sensor_type;location;lat;lon;timestamp;P1;durP1;ratioP1;P2;durP2;ratioP2
51312;SDS011;37397;53.226;10.400;2023-05-15T00:01:58;7.50;;;5.18;;
51312;SDS011;37397;53.226;10.400;2023-05-15T00:04:25;9.95;;;5.65;;
51312;SDS011;37397;53.226;10.400;2023-05-15T00:06:52;8.15;;;5.18;;
51312;SDS011;37397;53.226;10.400;2023-05-15T00:09:18;8.95;;;5.82;;
51312;SDS011;37397;53.226;10.400;2023-05-15T00:11:45;11.00;;;5.65;;
51312;SDS011;37397;53.226;10.400;2023-05-15T00:14:11;8.70;;;5.57;;
51312;SDS011;37397;53.226;10.400;2023-05-15T00:16:38;10.02;;;5.55;;
51312;SDS011;37397;53.226;10.400;2023-05-15T00:19:05;10.88;;;5.78;;
51312;SDS011;37397;53.226;10.400;2023-05-15T00:21:31;11.52;;;5.60;;
51312;SDS011;37397;53.226;10.400;2023-05-15T00:23:58;10.88;;;5.55;;
51312;SDS011;37397;53.226;10.400;2023-05-15T00:26:24;8.00;;;5.40;;
51312;SDS011;37397;53.226;10.400;2023-05-15T00:28:51;10.35;;;5.45;;
51312;SDS011;37397;53.226;10.400;2023-05-15T00:31:17;13.48;;;6.05;;
51312;SDS011;37397;53.226;10.400;2023-05-15T00:33:44;11.93;;;5.68;;
51312;SDS011;37397;53.226;10.400;2023-05-15T00:36:11;9.52;;;5.57;;
51312;SDS011;37397;53.226;10.400;2023-05-15T00:38:37;10.35;;;5.68;;
51312;SDS011;37397;53.226;10.400;2023-05-15T00:41:05;8.82;;;5.40;;
51312;SDS011;37397;53.226;10.400;2023-05-15T00:43:32;9.25;;;5.80;;
51312;SDS011;37397;53.226;10.400;2023-05-15T00:46:00;11.35;;;5.45;;
51312;SDS011;37397;53.226;10.400;2023-05-15T00:48:27;11.32;;;5.40;;
51312;SDS011;37397;53.226;10.400;2023-05-15T00:50:56;7.68;;;5.45;;
51312;SDS011;37397;53.226;10.400;2023-05-15T00:53:23;11.40;;;6.22;;
51312;SDS011;37397;53.226;10.400;2023-05-15T00:55:49;8.65;;;5.70;;
51312;SDS011;37397;53.226;10.400;2023-05-15T00:58:18;10.75;;;5.82;;
51312;SDS011;37397;53.226;10.400;2023-05-15T01:00:49;9.68;;;6.13;;
51312;SDS011;37397;53.226;10.400;2023-05-15T01:03:16;10.02;;;5.97;;
51312;SDS011;37397;53.226;10.400;2023-05-15T01:05:42;8.13;;;5.50;;
51312;SDS011;37397;53.226;10.400;2023-05-15T01:08:20;9.48;;;5.78;;
51312;SDS011;37397;53.226;10.400;2023-05-15T01:10:51;11.15;;;5.60;;
51312;SDS011;37397;53.226;10.400;2023-05-15T01:13:19;9.48;;;6.05;;
51312;SDS011;37397;53.226;10.400;2023-05-15T01:15:47;10.02;;;6.38;;
51312;SDS011;37397;53.226;10.400;2023-05-15T01:18:15;9.00;;;5.70;;
51312;SDS011;37397;53.226;10.400;2023-05-15T01:29:00;8.75;;;5.63;;
51312;SDS011;37397;53.226;10.400;2023-05-15T01:31:53;10.38;;;5.75;;
51312;SDS011;37397;53.226;10.400;2023-05-15T01:34:26;12.60;;;6.38;;
51312;SDS011;37397;53.226;10.400;2023-05-15T01:36:59;10.43;;;5.90;;
51312;SDS011;37397;53.226;10.400;2023-05-15T01:39:29;7.95;;;5.70;;
51312;SDS011;37397;53.226;10.400;2023-05-15T01:42:02;8.48;;;5.60;;
51312;SDS011;37397;53.226;10.400;2023-05-15T01:44:34;10.98;;;5.95;;
51312;SDS011;37397;53.226;10.400;2023-05-15T01:47:09;8.10;;;6.07;;
51312;SDS011;37397;53.226;10.400;2023-05-15T01:49:39;7.80;;;5.78;;
51312;SDS011;37397;53.226;10.400;2023-05-15T01:52:13;10.00;;;5.95;;
51312;SDS011;37397;53.226;10.400;2023-05-15T01:54:44;9.52;;;5.65;;
51312;SDS011;37397;53.226;10.400;2023-05-15T01:57:11;8.63;;;5.63;;
51312;SDS011;37397;53.226;10.400;2023-05-15T01:59:39;9.68;;;6.03;;
51312;SDS011;37397;53.226;10.400;2023-05-15T02:02:07;10.23;;;6.03;;
51312;SDS011;37397;53.226;10.400;2023-05-15T02:04:36;10.25;;;6.15;;
51312;SDS011;37397;53.226;10.400;2023-05-15T02:07:03;11.13;;;6.28;;
51312;SDS011;37397;53.226;10.400;2023-05-15T02:09:32;8.55;;;5.80;;
51312;SDS011;37397;53.226;10.400;2023-05-15T02:12:00;10.75;;;6.25;;
51312;SDS011;37397;53.226;10.400;2023-05-15T02:14:28;8.98;;;6.25;;
51312;SDS011;37397;53.226;10.400;2023-05-15T02:16:55;10.18;;;6.25;;
51312;SDS011;37397;53.226;10.400;2023-05-15T02:19:21;9.88;;;6.10;;
51312;SDS011;37397;53.226;10.400;2023-05-15T02:21:48;8.85;;;5.72;;
51312;SDS011;37397;53.226;10.400;2023-05-15T02:24:14;9.35;;;6.22;;
51312;SDS011;37397;53.226;10.400;2023-05-15T02:34:44;10.65;;;6.53;;
51312;SDS011;37397;53.226;10.400;2023-05-15T02:37:34;8.98;;;6.35;;
51312;SDS011;37397;53.226;10.400;2023-05-15T02:40:03;8.48;;;6.55;;
51312;SDS011;37397;53.226;10.400;2023-05-15T02:42:32;9.85;;;6.07;;
51312;SDS011;37397;53.226;10.400;2023-05-15T02:45:00;10.57;;;6.45;;
51312;SDS011;37397;53.226;10.400;2023-05-15T02:47:28;10.23;;;5.90;;
51312;SDS011;37397;53.226;10.400;2023-05-15T02:49:56;10.45;;;6.45;;
51312;SDS011;37397;53.226;10.400;2023-05-15T02:52:22;9.48;;;6.35;;
51312;SDS011;37397;53.226;10.400;2023-05-15T02:54:50;9.52;;;6.45;;
51312;SDS011;37397;53.226;10.400;2023-05-15T02:57:16;9.88;;;6.13;;
51312;SDS011;37397;53.226;10.400;2023-05-15T02:59:43;10.38;;;6.55;;
51312;SDS011;37397;53.226;10.400;2023-05-15T03:02:09;9.63;;;6.60;;
51312;SDS011;37397;53.226;10.400;2023-05-15T03:04:36;9.68;;;6.90;;
51312;SDS011;37397;53.226;10.400;2023-05-15T03:07:03;13.85;;;7.18;;
51312;SDS011;37397;53.226;10.400;2023-05-15T03:09:29;10.02;;;6.80;;
51312;SDS011;37397;53.226;10.400;2023-05-15T03:11:56;9.02;;;6.38;;
51312;SDS011;37397;53.226;10.400;2023-05-15T03:14:22;11.45;;;7.40;;
51312;SDS011;37397;53.226;10.400;2023-05-15T03:16:49;9.77;;;6.60;;
51312;SDS011;37397;53.226;10.400;2023-05-15T03:19:15;11.02;;;6.90;;
51312;SDS011;37397;53.226;10.400;2023-05-15T03:21:42;11.57;;;6.70;;
51312;SDS011;37397;53.226;10.400;2023-05-15T03:24:08;10.15;;;6.40;;
51312;SDS011;37397;53.226;10.400;2023-05-15T03:26:35;9.13;;;6.00;;
51312;SDS011;37397;53.226;10.400;2023-05-15T03:29:01;10.50;;;7.13;;
51312;SDS011;37397;53.226;10.400;2023-05-15T03:31:28;10.43;;;6.70;;
51312;SDS011;37397;53.226;10.400;2023-05-15T03:33:54;11.23;;;6.55;;
51312;SDS011;37397;53.226;10.400;2023-05-15T03:36:21;10.25;;;6.47;;
51312;SDS011;37397;53.226;10.400;2023-05-15T03:38:48;10.30;;;6.65;;
51312;SDS011;37397;53.226;10.400;2023-05-15T03:41:14;11.02;;;6.88;;
51312;SDS011;37397;53.226;10.400;2023-05-15T03:43:40;11.60;;;6.78;;
51312;SDS011;37397;53.226;10.400;2023-05-15T03:46:07;11.00;;;6.78;;
51312;SDS011;37397;53.226;10.400;2023-05-15T03:48:33;11.57;;;5.93;;
51312;SDS011;37397;53.226;10.400;2023-05-15T03:51:04;10.35;;;6.90;;
51312;SDS011;37397;53.226;10.400;2023-05-15T03:53:30;10.30;;;6.82;;
51312;SDS011;37397;53.226;10.400;2023-05-15T03:55:57;11.57;;;6.78;;
51312;SDS011;37397;53.226;10.400;2023-05-15T03:58:24;11.25;;;7.43;;
51312;SDS011;37397;53.226;10.400;2023-05-15T04:00:51;11.88;;;7.47;;
51312;SDS011;37397;53.226;10.400;2023-05-15T04:03:18;10.13;;;6.80;;
51312;SDS011;37397;53.226;10.400;2023-05-15T04:05:45;9.20;;;6.35;;
51312;SDS011;37397;53.226;10.400;2023-05-15T04:08:15;9.98;;;7.00;;
51312;SDS011;37397;53.226;10.400;2023-05-15T04:10:41;11.13;;;7.43;;
51312;SDS011;37397;53.226;10.400;2023-05-15T04:13:08;11.02;;;7.05;;
51312;SDS011;37397;53.226;10.400;2023-05-15T04:15:34;10.30;;;7.28;;
51312;SDS011;37397;53.226;10.400;2023-05-15T04:18:01;11.88;;;7.40;;
51312;SDS011;37397;53.226;10.400;2023-05-15T04:20:27;10.88;;;7.55;;
51312;SDS011;37397;53.226;10.400;2023-05-15T04:22:54;10.07;;;7.05;;
51312;SDS011;37397;53.226;10.400;2023-05-15T04:25:20;12.35;;;8.07;;
51312;SDS011;37397;53.226;10.400;2023-05-15T04:27:47;12.10;;;7.28;;
51312;SDS011;37397;53.226;10.400;2023-05-15T04:30:14;10.32;;;7.00;;
51312;SDS011;37397;53.226;10.400;2023-05-15T04:32:41;9.55;;;6.82;;
51312;SDS011;37397;53.226;10.400;2023-05-15T04:35:08;11.00;;;7.75;;
51312;SDS011;37397;53.226;10.400;2023-05-15T04:37:37;12.50;;;7.65;;
51312;SDS011;37397;53.226;10.400;2023-05-15T04:40:05;10.00;;;7.35;;
51312;SDS011;37397;53.226;10.400;2023-05-15T04:42:33;11.15;;;7.20;;
51312;SDS011;37397;53.226;10.400;2023-05-15T04:45:01;10.00;;;7.18;;
51312;SDS011;37397;53.226;10.400;2023-05-15T04:47:28;10.40;;;7.28;;
51312;SDS011;37397;53.226;10.400;2023-05-15T04:49:54;11.43;;;7.78;;
51312;SDS011;37397;53.226;10.400;2023-05-15T04:52:21;10.73;;;7.80;;
51312;SDS011;37397;53.226;10.400;2023-05-15T04:54:47;11.00;;;7.75;;
51312;SDS011;37397;53.226;10.400;2023-05-15T04:57:16;11.85;;;7.57;;
51312;SDS011;37397;53.226;10.400;2023-05-15T04:59:42;10.45;;;7.30;;
51312;SDS011;37397;53.226;10.400;2023-05-15T05:02:09;9.48;;;6.78;;
51312;SDS011;37397;53.226;10.400;2023-05-15T05:04:36;11.18;;;7.60;;
51312;SDS011;37397;53.226;10.400;2023-05-15T05:07:02;9.52;;;7.30;;
51312;SDS011;37397;53.226;10.400;2023-05-15T05:09:30;12.50;;;7.57;;
51312;SDS011;37397;53.226;10.400;2023-05-15T05:12:00;10.32;;;7.00;;
51312;SDS011;37397;53.226;10.400;2023-05-15T05:14:29;10.73;;;6.88;;
51312;SDS011;37397;53.226;10.400;2023-05-15T05:16:56;11.05;;;7.15;;
51312;SDS011;37397;53.226;10.400;2023-05-15T05:19:23;11.18;;;7.20;;
51312;SDS011;37397;53.226;10.400;2023-05-15T05:21:49;10.75;;;7.03;;
51312;SDS011;37397;53.226;10.400;2023-05-15T05:24:16;10.75;;;7.45;;
51312;SDS011;37397;53.226;10.400;2023-05-15T05:26:42;10.13;;;7.13;;
51312;SDS011;37397;53.226;10.400;2023-05-15T05:29:10;10.85;;;7.43;;
51312;SDS011;37397;53.226;10.400;2023-05-15T05:31:36;10.55;;;7.47;;
51312;SDS011;37397;53.226;10.400;2023-05-15T05:34:03;10.70;;;7.22;;
51312;SDS011;37397;53.226;10.400;2023-05-15T05:36:29;11.90;;;7.32;;
51312;SDS011;37397;53.226;10.400;2023-05-15T05:38:56;12.25;;;6.90;;
51312;SDS011;37397;53.226;10.400;2023-05-15T05:41:22;9.45;;;7.18;;
51312;SDS011;37397;53.226;10.400;2023-05-15T05:43:48;9.80;;;7.05;;
51312;SDS011;37397;53.226;10.400;2023-05-15T05:46:15;11.25;;;6.80;;
51312;SDS011;37397;53.226;10.400;2023-05-15T05:48:41;11.15;;;7.80;;
51312;SDS011;37397;53.226;10.400;2023-05-15T05:51:08;10.90;;;7.20;;
51312;SDS011;37397;53.226;10.400;2023-05-15T05:53:34;10.40;;;7.43;;
51312;SDS011;37397;53.226;10.400;2023-05-15T05:56:03;12.30;;;8.30;;
51312;SDS011;37397;53.226;10.400;2023-05-15T05:58:29;12.05;;;8.10;;
51312;SDS011;37397;53.226;10.400;2023-05-15T06:00:56;10.00;;;7.63;;
51312;SDS011;37397;53.226;10.400;2023-05-15T06:03:23;11.35;;;7.30;;
51312;SDS011;37397;53.226;10.400;2023-05-15T06:05:50;12.75;;;7.90;;
51312;SDS011;37397;53.226;10.400;2023-05-15T06:08:16;11.48;;;7.72;;
51312;SDS011;37397;53.226;10.400;2023-05-15T06:10:43;12.73;;;7.35;;
51312;SDS011;37397;53.226;10.400;2023-05-15T06:13:10;10.60;;;7.28;;
51312;SDS011;37397;53.226;10.400;2023-05-15T06:15:37;12.27;;;8.02;;
51312;SDS011;37397;53.226;10.400;2023-05-15T06:18:04;12.52;;;8.32;;
51312;SDS011;37397;53.226;10.400;2023-05-15T06:20:31;13.98;;;8.38;;
51312;SDS011;37397;53.226;10.400;2023-05-15T06:22:57;13.40;;;7.97;;
51312;SDS011;37397;53.226;10.400;2023-05-15T06:25:24;12.93;;;8.27;;
51312;SDS011;37397;53.226;10.400;2023-05-15T06:27:51;12.70;;;8.10;;
51312;SDS011;37397;53.226;10.400;2023-05-15T06:30:17;12.38;;;7.75;;
51312;SDS011;37397;53.226;10.400;2023-05-15T06:32:44;12.80;;;8.27;;
51312;SDS011;37397;53.226;10.400;2023-05-15T06:35:11;13.73;;;8.88;;
51312;SDS011;37397;53.226;10.400;2023-05-15T06:37:37;14.05;;;8.50;;
51312;SDS011;37397;53.226;10.400;2023-05-15T06:40:04;11.32;;;7.07;;
51312;SDS011;37397;53.226;10.400;2023-05-15T06:42:31;12.70;;;8.00;;
51312;SDS011;37397;53.226;10.400;2023-05-15T06:44:58;12.23;;;8.35;;
51312;SDS011;37397;53.226;10.400;2023-05-15T06:47:25;11.20;;;7.30;;
51312;SDS011;37397;53.226;10.400;2023-05-15T06:49:52;12.57;;;8.18;;
51312;SDS011;37397;53.226;10.400;2023-05-15T06:52:20;11.75;;;7.03;;
51312;SDS011;37397;53.226;10.400;2023-05-15T06:54:46;10.20;;;7.03;;
51312;SDS011;37397;53.226;10.400;2023-05-15T06:57:13;10.88;;;6.70;;
51312;SDS011;37397;53.226;10.400;2023-05-15T06:59:40;9.30;;;6.55;;
51312;SDS011;37397;53.226;10.400;2023-05-15T07:02:06;12.95;;;7.03;;
51312;SDS011;37397;53.226;10.400;2023-05-15T07:04:33;10.02;;;6.35;;
51312;SDS011;37397;53.226;10.400;2023-05-15T07:07:00;10.55;;;6.32;;
51312;SDS011;37397;53.226;10.400;2023-05-15T07:09:26;11.70;;;6.22;;
51312;SDS011;37397;53.226;10.400;2023-05-15T07:11:53;8.48;;;5.90;;
51312;SDS011;37397;53.226;10.400;2023-05-15T07:14:19;8.50;;;5.65;;
51312;SDS011;37397;53.226;10.400;2023-05-15T07:16:45;10.75;;;5.95;;
51312;SDS011;37397;53.226;10.400;2023-05-15T07:19:12;9.38;;;5.65;;
51312;SDS011;37397;53.226;10.400;2023-05-15T07:21:39;8.70;;;5.50;;
51312;SDS011;37397;53.226;10.400;2023-05-15T07:24:06;9.48;;;5.63;;
51312;SDS011;37397;53.226;10.400;2023-05-15T07:26:32;9.07;;;5.50;;
51312;SDS011;37397;53.226;10.400;2023-05-15T07:29:15;11.32;;;5.78;;
51312;SDS011;37397;53.226;10.400;2023-05-15T07:31:42;8.63;;;5.57;;
51312;SDS011;37397;53.226;10.400;2023-05-15T07:34:10;8.55;;;5.15;;
51312;SDS011;37397;53.226;10.400;2023-05-15T07:36:36;8.25;;;5.00;;
51312;SDS011;37397;53.226;10.400;2023-05-15T07:39:03;9.27;;;5.43;;
51312;SDS011;37397;53.226;10.400;2023-05-15T07:41:29;8.05;;;5.07;;
51312;SDS011;37397;53.226;10.400;2023-05-15T07:43:58;8.40;;;4.82;;
51312;SDS011;37397;53.226;10.400;2023-05-15T07:46:25;9.80;;;5.05;;
51312;SDS011;37397;53.226;10.400;2023-05-15T07:48:52;7.28;;;4.78;;
51312;SDS011;37397;53.226;10.400;2023-05-15T07:51:18;10.82;;;4.57;;
51312;SDS011;37397;53.226;10.400;2023-05-15T07:53:44;6.80;;;4.40;;
51312;SDS011;37397;53.226;10.400;2023-05-15T07:56:11;9.30;;;4.38;;
51312;SDS011;37397;53.226;10.400;2023-05-15T07:58:37;7.57;;;3.92;;
51312;SDS011;37397;53.226;10.400;2023-05-15T08:01:05;7.60;;;4.72;;
51312;SDS011;37397;53.226;10.400;2023-05-15T08:03:32;7.95;;;4.10;;
51312;SDS011;37397;53.226;10.400;2023-05-15T08:05:59;6.47;;;4.22;;
51312;SDS011;37397;53.226;10.400;2023-05-15T08:08:25;8.90;;;4.22;;
51312;SDS011;37397;53.226;10.400;2023-05-15T08:10:52;6.00;;;4.15;;
51312;SDS011;37397;53.226;10.400;2023-05-15T08:13:18;7.07;;;3.90;;
51312;SDS011;37397;53.226;10.400;2023-05-15T08:15:45;6.32;;;3.80;;
51312;SDS011;37397;53.226;10.400;2023-05-15T08:18:11;6.55;;;4.30;;
51312;SDS011;37397;53.226;10.400;2023-05-15T08:20:38;6.68;;;3.65;;
51312;SDS011;37397;53.226;10.400;2023-05-15T08:23:04;7.47;;;4.20;;
51312;SDS011;37397;53.226;10.400;2023-05-15T08:25:31;7.68;;;4.38;;
51312;SDS011;37397;53.226;10.400;2023-05-15T08:27:58;7.57;;;4.13;;
51312;SDS011;37397;53.226;10.400;2023-05-15T08:30:24;8.98;;;4.38;;
51312;SDS011;37397;53.226;10.400;2023-05-15T08:32:51;7.53;;;4.15;;
51312;SDS011;37397;53.226;10.400;2023-05-15T08:35:17;5.63;;;3.72;;
51312;SDS011;37397;53.226;10.400;2023-05-15T08:37:44;7.88;;;4.10;;
51312;SDS011;37397;53.226;10.400;2023-05-15T08:40:10;6.22;;;3.60;;
51312;SDS011;37397;53.226;10.400;2023-05-15T08:42:44;5.20;;;3.42;;
51312;SDS011;37397;53.226;10.400;2023-05-15T08:45:18;9.25;;;3.70;;
51312;SDS011;37397;53.226;10.400;2023-05-15T08:47:45;6.10;;;3.80;;
51312;SDS011;37397;53.226;10.400;2023-05-15T08:50:12;5.13;;;3.47;;
51312;SDS011;37397;53.226;10.400;2023-05-15T08:52:41;8.23;;;3.78;;
51312;SDS011;37397;53.226;10.400;2023-05-15T08:55:09;7.13;;;3.65;;
51312;SDS011;37397;53.226;10.400;2023-05-15T08:57:36;5.95;;;3.50;;
51312;SDS011;37397;53.226;10.400;2023-05-15T09:00:04;9.00;;;3.80;;
51312;SDS011;37397;53.226;10.400;2023-05-15T09:02:35;8.13;;;3.88;;
51312;SDS011;37397;53.226;10.400;2023-05-15T09:05:03;4.97;;;3.50;;
51312;SDS011;37397;53.226;10.400;2023-05-15T09:07:30;6.65;;;3.55;;
51312;SDS011;37397;53.226;10.400;2023-05-15T09:09:58;8.38;;;3.20;;
51312;SDS011;37397;53.226;10.400;2023-05-15T09:12:26;8.05;;;3.60;;
51312;SDS011;37397;53.226;10.400;2023-05-15T09:15:09;5.93;;;3.50;;
51312;SDS011;37397;53.226;10.400;2023-05-15T09:17:39;6.65;;;3.88;;
51312;SDS011;37397;53.226;10.400;2023-05-15T09:20:29;6.38;;;3.72;;
51312;SDS011;37397;53.226;10.400;2023-05-15T09:23:02;5.65;;;3.22;;
51312;SDS011;37397;53.226;10.400;2023-05-15T09:25:39;6.97;;;3.15;;
51312;SDS011;37397;53.226;10.400;2023-05-15T09:28:09;6.25;;;3.60;;
51312;SDS011;37397;53.226;10.400;2023-05-15T09:30:49;6.03;;;3.60;;
51312;SDS011;37397;53.226;10.400;2023-05-15T09:33:30;7.63;;;3.63;;
51312;SDS011;37397;53.226;10.400;2023-05-15T09:35:57;6.97;;;3.13;;
51312;SDS011;37397;53.226;10.400;2023-05-15T09:38:24;6.05;;;3.38;;
51312;SDS011;37397;53.226;10.400;2023-05-15T09:40:59;7.32;;;3.60;;
51312;SDS011;37397;53.226;10.400;2023-05-15T09:43:28;5.70;;;3.10;;
51312;SDS011;37397;53.226;10.400;2023-05-15T09:45:55;8.50;;;3.70;;
51312;SDS011;37397;53.226;10.400;2023-05-15T09:48:21;6.30;;;3.40;;
51312;SDS011;37397;53.226;10.400;2023-05-15T09:50:48;7.30;;;3.25;;
51312;SDS011;37397;53.226;10.400;2023-05-15T09:53:14;8.48;;;3.35;;
51312;SDS011;37397;53.226;10.400;2023-05-15T09:55:47;7.35;;;3.80;;
51312;SDS011;37397;53.226;10.400;2023-05-15T09:58:15;8.60;;;3.67;;
51312;SDS011;37397;53.226;10.400;2023-05-15T10:00:43;5.70;;;3.58;;
51312;SDS011;37397;53.226;10.400;2023-05-15T10:03:14;6.88;;;2.95;;
51312;SDS011;37397;53.226;10.400;2023-05-15T10:05:41;5.38;;;3.00;;
51312;SDS011;37397;53.226;10.400;2023-05-15T10:08:09;5.07;;;3.28;;
51312;SDS011;37397;53.226;10.400;2023-05-15T10:10:37;6.43;;;3.30;;
51312;SDS011;37397;53.226;10.400;2023-05-15T10:13:04;8.23;;;3.30;;
51312;SDS011;37397;53.226;10.400;2023-05-15T10:15:33;5.10;;;3.28;;
51312;SDS011;37397;53.226;10.400;2023-05-15T10:18:00;5.45;;;3.22;;
51312;SDS011;37397;53.226;10.400;2023-05-15T10:20:30;6.63;;;3.70;;
51312;SDS011;37397;53.226;10.400;2023-05-15T10:22:58;5.88;;;3.80;;
51312;SDS011;37397;53.226;10.400;2023-05-15T10:28:17;7.70;;;3.70;;
51312;SDS011;37397;53.226;10.400;2023-05-15T10:30:45;6.13;;;3.70;;
51312;SDS011;37397;53.226;10.400;2023-05-15T10:33:12;5.60;;;3.08;;
51312;SDS011;37397;53.226;10.400;2023-05-15T10:35:40;5.80;;;3.60;;
51312;SDS011;37397;53.226;10.400;2023-05-15T10:38:07;7.07;;;3.67;;
51312;SDS011;37397;53.226;10.400;2023-05-15T10:40:36;6.93;;;3.20;;
51312;SDS011;37397;53.226;10.400;2023-05-15T10:43:05;7.47;;;3.42;;
51312;SDS011;37397;53.226;10.400;2023-05-15T10:45:35;6.60;;;3.10;;
51312;SDS011;37397;53.226;10.400;2023-05-15T10:48:02;7.53;;;3.60;;
51312;SDS011;37397;53.226;10.400;2023-05-15T10:50:31;7.57;;;3.40;;
51312;SDS011;37397;53.226;10.400;2023-05-15T10:52:57;5.78;;;3.10;;
51312;SDS011;37397;53.226;10.400;2023-05-15T10:55:25;5.63;;;3.20;;
51312;SDS011;37397;53.226;10.400;2023-05-15T10:57:51;5.95;;;3.17;;
51312;SDS011;37397;53.226;10.400;2023-05-15T11:02:48;6.75;;;3.20;;
51312;SDS011;37397;53.226;10.400;2023-05-15T11:05:18;6.43;;;3.40;;
51312;SDS011;37397;53.226;10.400;2023-05-15T11:08:21;9.10;;;3.42;;
51312;SDS011;37397;53.226;10.400;2023-05-15T11:10:41;5.80;;;3.20;;
51312;SDS011;37397;53.226;10.400;2023-05-15T11:13:07;5.95;;;3.33;;
51312;SDS011;37397;53.226;10.400;2023-05-15T11:15:43;5.18;;;3.58;;
51312;SDS011;37397;53.226;10.400;2023-05-15T11:18:11;7.15;;;3.10;;
51312;SDS011;37397;53.226;10.400;2023-05-15T11:20:41;7.22;;;3.30;;
51312;SDS011;37397;53.226;10.400;2023-05-15T11:23:27;6.10;;;3.40;;
51312;SDS011;37397;53.226;10.400;2023-05-15T11:25:57;6.85;;;3.78;;
51312;SDS011;37397;53.226;10.400;2023-05-15T11:28:24;5.60;;;3.58;;
51312;SDS011;37397;53.226;10.400;2023-05-15T11:31:05;8.20;;;3.70;;
51312;SDS011;37397;53.226;10.400;2023-05-15T11:33:33;5.85;;;3.40;;
51312;SDS011;37397;53.226;10.400;2023-05-15T11:35:59;6.38;;;3.22;;
51312;SDS011;37397;53.226;10.400;2023-05-15T11:38:26;8.07;;;3.80;;
51312;SDS011;37397;53.226;10.400;2023-05-15T11:40:59;7.10;;;3.38;;
51312;SDS011;37397;53.226;10.400;2023-05-15T11:43:29;6.75;;;3.78;;
51312;SDS011;37397;53.226;10.400;2023-05-15T11:48:44;5.05;;;3.40;;
51312;SDS011;37397;53.226;10.400;2023-05-15T11:53:44;7.03;;;3.58;;
51312;SDS011;37397;53.226;10.400;2023-05-15T11:56:12;8.00;;;3.63;;
51312;SDS011;37397;53.226;10.400;2023-05-15T11:58:54;7.82;;;3.20;;
51312;SDS011;37397;53.226;10.400;2023-05-15T12:01:22;8.82;;;3.60;;
51312;SDS011;37397;53.226;10.400;2023-05-15T12:03:49;5.95;;;3.90;;
51312;SDS011;37397;53.226;10.400;2023-05-15T12:06:17;7.30;;;3.55;;
51312;SDS011;37397;53.226;10.400;2023-05-15T12:08:43;9.13;;;3.40;;
51312;SDS011;37397;53.226;10.400;2023-05-15T12:11:17;6.45;;;3.55;;
51312;SDS011;37397;53.226;10.400;2023-05-15T12:13:49;4.45;;;3.28;;
51312;SDS011;37397;53.226;10.400;2023-05-15T12:16:17;5.72;;;3.30;;
51312;SDS011;37397;53.226;10.400;2023-05-15T12:18:49;7.78;;;3.50;;
51312;SDS011;37397;53.226;10.400;2023-05-15T12:21:16;9.70;;;3.45;;
51312;SDS011;37397;53.226;10.400;2023-05-15T12:23:50;6.97;;;3.70;;
51312;SDS011;37397;53.226;10.400;2023-05-15T12:26:31;9.40;;;3.80;;
51312;SDS011;37397;53.226;10.400;2023-05-15T12:28:59;7.78;;;3.70;;
51312;SDS011;37397;53.226;10.400;2023-05-15T12:31:25;6.15;;;3.30;;
51312;SDS011;37397;53.226;10.400;2023-05-15T12:33:52;6.78;;;3.55;;
51312;SDS011;37397;53.226;10.400;2023-05-15T12:36:19;8.95;;;4.25;;
51312;SDS011;37397;53.226;10.400;2023-05-15T12:38:46;6.15;;;3.13;;
51312;SDS011;37397;53.226;10.400;2023-05-15T12:41:13;6.07;;;3.50;;
51312;SDS011;37397;53.226;10.400;2023-05-15T12:43:40;7.43;;;3.80;;
51312;SDS011;37397;53.226;10.400;2023-05-15T12:46:06;8.90;;;3.40;;
51312;SDS011;37397;53.226;10.400;2023-05-15T12:48:33;6.25;;;3.47;;
51312;SDS011;37397;53.226;10.400;2023-05-15T12:51:05;7.50;;;3.67;;
51312;SDS011;37397;53.226;10.400;2023-05-15T12:53:32;6.25;;;3.40;;
51312;SDS011;37397;53.226;10.400;2023-05-15T12:55:59;7.15;;;3.33;;
51312;SDS011;37397;53.226;10.400;2023-05-15T12:58:26;7.10;;;3.13;;
51312;SDS011;37397;53.226;10.400;2023-05-15T13:00:53;7.95;;;3.67;;
51312;SDS011;37397;53.226;10.400;2023-05-15T13:03:20;7.38;;;3.30;;
51312;SDS011;37397;53.226;10.400;2023-05-15T13:05:47;5.80;;;3.58;;
51312;SDS011;37397;53.226;10.400;2023-05-15T13:08:14;8.40;;;3.65;;
51312;SDS011;37397;53.226;10.400;2023-05-15T13:10:42;4.53;;;2.90;;
51312;SDS011;37397;53.226;10.400;2023-05-15T13:13:10;7.63;;;3.65;;
51312;SDS011;37397;53.226;10.400;2023-05-15T13:15:41;8.48;;;3.13;;
51312;SDS011;37397;53.226;10.400;2023-05-15T13:18:09;5.85;;;3.20;;
51312;SDS011;37397;53.226;10.400;2023-05-15T13:20:38;8.40;;;3.53;;
51312;SDS011;37397;53.226;10.400;2023-05-15T13:23:07;9.40;;;3.42;;
51312;SDS011;37397;53.226;10.400;2023-05-15T13:25:34;6.80;;;3.22;;
51312;SDS011;37397;53.226;10.400;2023-05-15T13:28:02;7.07;;;3.50;;
51312;SDS011;37397;53.226;10.400;2023-05-15T13:30:33;8.90;;;3.55;;
51312;SDS011;37397;53.226;10.400;2023-05-15T13:33:00;7.07;;;3.65;;
51312;SDS011;37397;53.226;10.400;2023-05-15T13:35:28;7.18;;;3.50;;
51312;SDS011;37397;53.226;10.400;2023-05-15T13:37:54;5.47;;;3.38;;
51312;SDS011;37397;53.226;10.400;2023-05-15T13:40:21;7.53;;;3.78;;
51312;SDS011;37397;53.226;10.400;2023-05-15T13:42:49;5.95;;;3.45;;
51312;SDS011;37397;53.226;10.400;2023-05-15T13:45:15;6.53;;;3.15;;
51312;SDS011;37397;53.226;10.400;2023-05-15T13:47:42;6.00;;;3.55;;
51312;SDS011;37397;53.226;10.400;2023-05-15T13:50:12;7.95;;;3.70;;
51312;SDS011;37397;53.226;10.400;2023-05-15T13:52:40;7.60;;;3.40;;
51312;SDS011;37397;53.226;10.400;2023-05-15T13:55:08;6.75;;;3.60;;
51312;SDS011;37397;53.226;10.400;2023-05-15T13:57:35;5.32;;;3.35;;
51312;SDS011;37397;53.226;10.400;2023-05-15T14:00:06;7.43;;;3.60;;
51312;SDS011;37397;53.226;10.400;2023-05-15T14:02:38;6.93;;;4.05;;
51312;SDS011;37397;53.226;10.400;2023-05-15T14:05:06;9.07;;;4.80;;
51312;SDS011;37397;53.226;10.400;2023-05-15T14:07:33;11.00;;;4.60;;
51312;SDS011;37397;53.226;10.400;2023-05-15T14:09:59;8.02;;;4.47;;
51312;SDS011;37397;53.226;10.400;2023-05-15T14:12:25;7.97;;;4.82;;
51312;SDS011;37397;53.226;10.400;2023-05-15T14:14:52;8.57;;;5.82;;
51312;SDS011;37397;53.226;10.400;2023-05-15T14:17:18;13.02;;;5.03;;
51312;SDS011;37397;53.226;10.400;2023-05-15T14:19:47;9.38;;;5.20;;
51312;SDS011;37397;53.226;10.400;2023-05-15T14:22:20;9.55;;;4.93;;
51312;SDS011;37397;53.226;10.400;2023-05-15T14:24:50;9.50;;;4.18;;
51312;SDS011;37397;53.226;10.400;2023-05-15T14:27:17;8.10;;;4.95;;
51312;SDS011;37397;53.226;10.400;2023-05-15T14:29:43;8.68;;;5.00;;
51312;SDS011;37397;53.226;10.400;2023-05-15T14:32:10;8.63;;;5.13;;
51312;SDS011;37397;53.226;10.400;2023-05-15T14:34:37;9.60;;;5.80;;
51312;SDS011;37397;53.226;10.400;2023-05-15T14:37:03;9.68;;;4.88;;
51312;SDS011;37397;53.226;10.400;2023-05-15T14:39:30;10.27;;;5.47;;
51312;SDS011;37397;53.226;10.400;2023-05-15T14:41:56;10.98;;;5.07;;
51312;SDS011;37397;53.226;10.400;2023-05-15T14:44:23;9.13;;;5.40;;
51312;SDS011;37397;53.226;10.400;2023-05-15T14:47:03;9.77;;;5.00;;
51312;SDS011;37397;53.226;10.400;2023-05-15T14:49:38;8.48;;;5.10;;
51312;SDS011;37397;53.226;10.400;2023-05-15T14:52:06;10.60;;;5.43;;
51312;SDS011;37397;53.226;10.400;2023-05-15T14:54:34;9.35;;;5.45;;
51312;SDS011;37397;53.226;10.400;2023-05-15T14:57:01;10.02;;;5.18;;
51312;SDS011;37397;53.226;10.400;2023-05-15T14:59:27;11.07;;;5.47;;
51312;SDS011;37397;53.226;10.400;2023-05-15T15:01:54;12.60;;;5.30;;
51312;SDS011;37397;53.226;10.400;2023-05-15T15:04:20;9.27;;;5.68;;